Time;durP1;ratioP1;P1;durP2;ratioP2;P2;SDS_P1;SDS_P2;PMS_P1;PMS_P2;Temp;Humidity;BMP_temperature;BMP_pressure;BME280_temperature;BME280_humidity;BME280_pressure;Samples;Min_cycle;Max_cycle;Signal;HPM_P1;HPM_P2
2024/01/04 00:02:51;;;;;;;1999.90;999.90;;;;;;;7.92;100.00;99348.91;10338300;28;20061;-72
2024/01/04 00:07:53;;;;;;;1999.90;999.90;;;;;;;7.94;100.00;99352.25;10320653;28;20050;-72
2024/01/04 00:12:56;;;;;;;1999.90;999.90;;;;;;;8.07;100.00;99362.66;10337566;28;20403;-73
2024/01/04 00:17:58;;;;;;;1999.90;999.90;;;;;;;8.08;100.00;99371.31;10337319;28;20133;-73
2024/01/04 00:23:01;;;;;;;1999.90;999.90;;;;;;;7.99;100.00;99380.59;10336990;28;20130;-72
2024/01/04 00:28:04;;;;;;;1999.90;999.90;;;;;;;8.01;100.00;99394.34;10320470;28;20054;-72
2024/01/04 00:33:06;;;;;;;1999.90;999.90;;;;;;;7.94;100.00;99406.97;10337000;28;20050;-72
2024/01/04 00:38:09;;;;;;;1999.90;999.90;;;;;;;7.93;100.00;99412.28;10335831;28;20556;-72
2024/01/04 00:43:12;;;;;;;1999.90;999.90;;;;;;;7.97;100.00;99430.22;10335666;28;20050;-72
2024/01/04 00:48:14;;;;;;;1999.90;999.90;;;;;;;7.99;100.00;99433.56;10336258;28;20182;-72
2024/01/04 00:53:17;;;;;;;1999.90;999.90;;;;;;;7.93;100.00;99449.59;10335868;28;20052;-72
2024/01/04 00:58:19;;;;;;;1999.90;999.90;;;;;;;7.84;100.00;99465.88;10335756;28;20054;-72
2024/01/04 01:03:21;;;;;;;1999.90;999.90;;;;;;;7.94;100.00;99477.34;10334411;28;20076;-73
2024/01/04 01:08:27;;;;;;;1999.90;999.90;;;;;;;7.88;100.00;99492.56;10334686;28;20584;-73
2024/01/04 01:13:29;;;;;;;1999.90;999.90;;;;;;;7.94;100.00;99499.97;10335147;28;20486;-72
2024/01/04 01:18:32;;;;;;;1999.90;999.90;;;;;;;7.90;100.00;99512.38;10317837;28;20500;-72
2024/01/04 01:23:34;;;;;;;1999.90;999.90;;;;;;;7.92;100.00;99520.09;10333333;28;20051;-72
2024/01/04 01:28:37;;;;;;;1999.90;999.90;;;;;;;7.80;100.00;99529.53;10335399;28;20050;-71
2024/01/04 01:33:45;;;;;;;1999.90;999.90;;;;;;;7.76;100.00;99544.53;10334474;28;20052;-72
2024/01/04 01:38:48;;;;;;;1999.90;999.90;;;;;;;7.75;100.00;99557.66;10333245;28;20475;-72
2024/01/04 01:43:50;;;;;;;1999.90;999.90;;;;;;;7.73;100.00;99578.63;10333134;28;20049;-71
2024/01/04 01:48:53;;;;;;;1999.90;999.90;;;;;;;7.70;100.00;99584.03;10334020;28;20057;-72
2024/01/04 01:53:56;;;;;;;1999.90;999.90;;;;;;;7.65;100.00;99593.06;10331880;28;20054;-72
2024/01/04 01:59:01;;;;;;;1999.90;999.90;;;;;;;7.83;100.00;99610.13;10333892;28;20058;-72
2024/01/04 02:04:12;;;;;;;1999.90;999.90;;;;;;;7.80;100.00;99618.13;10332712;28;20050;-71
2024/01/04 02:09:15;;;;;;;1999.90;999.90;;;;;;;7.81;100.00;99620.63;10332607;28;20134;-72
2024/01/04 02:14:17;;;;;;;1999.90;999.90;;;;;;;7.92;100.00;99629.56;10332993;28;20050;-72
2024/01/04 02:19:20;;;;;;;1999.90;999.90;;;;;;;7.69;100.00;99628.44;10333787;28;20056;-72
2024/01/04 02:24:23;;;;;;;1999.90;999.90;;;;;;;7.71;100.00;99635.19;10333463;28;20133;-72
2024/01/04 02:29:25;;;;;;;1999.90;999.90;;;;;;;7.76;100.00;99650.53;10301229;28;20062;-72
2024/01/04 02:34:29;;;;;;;1999.90;999.90;;;;;;;7.62;100.00;99672.25;10332544;28;20057;-72
2024/01/04 02:39:32;;;;;;;1999.90;999.90;;;;;;;7.59;100.00;99672.47;10333381;28;20057;-72
2024/01/04 02:44:34;;;;;;;1999.90;999.90;;;;;;;7.57;100.00;99696.00;10333042;28;20046;-72
2024/01/04 02:49:38;;;;;;;1999.90;999.90;;;;;;;7.47;100.00;99699.28;10332506;28;20050;-72
2024/01/04 02:54:40;;;;;;;1999.90;999.90;;;;;;;7.49;100.00;99693.03;10331766;28;20056;-72
2024/01/04 02:59:43;;;;;;;1999.90;999.90;;;;;;;7.57;100.00;99701.19;10331560;28;20054;-72
2024/01/04 03:04:45;;;;;;;1999.90;999.90;;;;;;;7.57;100.00;99700.38;10337511;28;20121;-72
2024/01/04 03:09:48;;;;;;;1999.90;999.90;;;;;;;7.46;100.00;99702.81;10339854;28;20482;-72
2024/01/04 03:14:51;;;;;;;1999.90;999.90;;;;;;;7.58;100.00;99713.31;10338846;28;20050;-72
2024/01/04 03:19:53;;;;;;;1999.90;999.90;;;;;;;7.56;100.00;99720.34;10338884;28;20053;-73
2024/01/04 03:24:56;;;;;;;1999.90;999.90;;;;;;;7.56;100.00;99722.13;10339646;28;20078;-72
2024/01/04 03:29:59;;;;;;;1999.90;999.90;;;;;;;7.50;100.00;99730.31;10339485;28;20085;-73
2024/01/04 03:35:01;;;;;;;1999.90;999.90;;;;;;;7.49;100.00;99746.91;10337765;28;20577;-72
2024/01/04 03:40:04;;;;;;;1999.90;999.90;;;;;;;7.48;100.00;99759.09;10349734;22;20058;-72
2024/01/04 03:45:07;;;;;;;1999.90;999.90;;;;;;;7.48;100.00;99758.22;10337653;28;20046;-72
2024/01/04 03:50:09;;;;;;;1999.90;999.90;;;;;;;7.58;100.00;99764.53;10337617;28;20104;-72
2024/01/04 03:55:14;;;;;;;1999.90;999.90;;;;;;;7.58;100.00;99767.16;10338368;28;20174;-72
2024/01/04 04:00:18;;;;;;;1999.90;999.90;;;;;;;7.58;100.00;99773.22;10338531;28;20054;-73
2024/01/04 04:05:21;;;;;;;1999.90;999.90;;;;;;;7.46;100.00;99784.38;10337907;28;20560;-73
2024/01/04 04:10:24;;;;;;;1999.90;999.90;;;;;;;7.42;100.00;99794.13;10352819;28;20386;-73
2024/01/04 04:15:26;;;;;;;1999.90;999.90;;;;;;;7.34;100.00;99798.97;10336709;28;20082;-73
2024/01/04 04:20:29;;;;;;;1999.90;999.90;;;;;;;7.25;100.00;99807.34;10337290;28;20513;-73
2024/01/04 04:25:31;;;;;;;1999.90;999.90;;;;;;;7.60;100.00;99815.63;10352456;28;20050;-73
2024/01/04 04:30:34;;;;;;;1999.90;999.90;;;;;;;7.47;100.00;99809.50;10337147;28;20050;-73
2024/01/04 04:35:36;;;;;;;1999.90;999.90;;;;;;;7.50;100.00;99811.91;10336646;28;20474;-73
2024/01/04 04:40:57;;;;;;;1999.90;999.90;;;;;;;7.44;100.00;99822.69;10337022;28;20065;-73
2024/01/04 04:45:59;;;;;;;1999.90;999.90;;;;;;;7.40;100.00;99831.63;10351734;28;20046;-73
2024/01/04 04:51:02;;;;;;;1999.90;999.90;;;;;;;7.51;100.00;99836.19;10336821;28;20057;-73
2024/01/04 04:56:04;;;;;;;1999.90;999.90;;;;;;;8.67;100.00;99827.28;10351110;28;20042;-73
2024/01/04 05:01:08;;;;;;;1999.90;999.90;;;;;;;8.48;100.00;99844.09;10336148;28;20068;-73
2024/01/04 05:06:10;;;;;;;1999.90;999.90;;;;;;;8.44;100.00;99833.97;10334375;28;20073;-73
2024/01/04 05:11:13;;;;;;;1999.90;999.90;;;;;;;8.19;100.00;99833.72;10335305;28;20522;-73
2024/01/04 05:16:16;;;;;;;1999.90;999.90;;;;;;;8.26;100.00;99834.16;10334405;28;20082;-73
2024/01/04 05:21:18;;;;;;;1999.90;999.90;;;;;;;8.19;100.00;99833.72;10334994;28;20474;-73
2024/01/04 05:26:21;;;;;;;1999.90;999.90;;;;;;;8.39;100.00;99839.47;10349876;28;20101;-73
2024/01/04 05:31:26;;;;;;;1999.90;999.90;;;;;;;8.38;100.00;99841.22;10349641;28;20497;-73
2024/01/04 05:36:30;;;;;;;1999.90;999.90;;;;;;;8.43;100.00;99842.75;10349709;28;20082;-72
2024/01/04 05:41:32;;;;;;;1999.90;999.90;;;;;;;8.19;100.00;99861.56;10334364;28;20086;-72
2024/01/04 05:46:34;;;;;;;1999.90;999.90;;;;;;;8.22;100.00;99877.03;10334305;28;20042;-72
2024/01/04 05:51:37;;;;;;;1999.90;999.90;;;;;;;8.21;100.00;99882.34;10334639;28;20050;-72
2024/01/04 05:56:44;;;;;;;1999.90;999.90;;;;;;;8.31;100.00;99880.84;10334610;28;20084;-73
2024/01/04 06:01:48;;;;;;;1999.90;999.90;;;;;;;9.08;100.00;99896.84;10334651;28;20085;-73
2024/01/04 06:06:50;;;;;;;1999.90;999.90;;;;;;;8.70;100.00;99900.16;10333673;28;20525;-73
2024/01/04 06:11:53;;;;;;;1999.90;999.90;;;;;;;8.76;100.00;99912.81;10332792;28;20058;-72
2024/01/04 06:16:55;;;;;;;1999.90;999.90;;;;;;;8.48;100.00;99919.75;10333663;28;20054;-72
2024/01/04 06:21:57;;;;;;;1999.90;999.90;;;;;;;8.66;100.00;99927.38;10348571;28;20053;-73
2024/01/04 06:27:00;;;;;;;1999.90;999.90;;;;;;;8.60;100.00;99925.97;10332403;28;20129;-72
2024/01/04 06:32:03;;;;;;;1999.90;999.90;;;;;;;8.42;100.00;99940.97;10348320;28;20485;-72
2024/01/04 06:37:05;;;;;;;1999.90;999.90;;;;;;;8.51;100.00;99958.72;10333422;28;20054;-72
2024/01/04 06:42:07;;;;;;;1999.90;999.90;;;;;;;8.30;100.00;99963.44;10341260;28;20056;-72
2024/01/04 06:47:10;;;;;;;1999.90;999.90;;;;;;;8.28;100.00;99974.91;10340927;28;20500;-72
2024/01/04 06:52:12;;;;;;;1999.90;999.90;;;;;;;8.48;100.00;99982.38;10340965;28;20058;-72
2024/01/04 06:57:15;;;;;;;1999.90;999.90;;;;;;;8.57;100.00;99985.34;10340468;28;20054;-72
2024/01/04 07:02:17;;;;;;;1999.90;999.90;;;;;;;8.63;100.00;99998.84;10355284;28;20050;-73
2024/01/04 07:07:19;;;;;;;1999.90;999.90;;;;;;;8.73;100.00;100012.19;10340242;28;20158;-73
2024/01/04 07:12:23;;;;;;;1999.90;999.90;;;;;;;8.64;100.00;100003.16;10339979;28;20054;-72
2024/01/04 07:17:25;;;;;;;1999.90;999.90;;;;;;;8.58;100.00;100011.34;10354772;28;20530;-72
2024/01/04 07:22:27;;;;;;;1999.90;999.90;;;;;;;9.16;100.00;100029.50;10338447;28;20050;-72
2024/01/04 07:27:30;;;;;;;1999.90;999.90;;;;;;;9.01;100.00;100032.19;10339889;28;20473;-72
2024/01/04 07:32:32;;;;;;;1999.90;999.90;;;;;;;8.91;100.00;100033.69;10339741;28;20556;-72
2024/01/04 07:37:35;;;;;;;1999.90;999.90;;;;;;;8.73;100.00;100048.72;10338777;28;20511;-73
2024/01/04 07:42:37;;;;;;;1999.90;999.90;;;;;;;8.90;100.00;100065.94;10339039;28;20050;-73
2024/01/04 07:47:39;;;;;;;1999.90;999.90;;;;;;;8.89;100.00;100072.94;10339152;28;20121;-73
2024/01/04 07:52:42;;;;;;;1999.90;999.90;;;;;;;8.81;100.00;100080.41;10353680;28;20054;-73
2024/01/04 07:57:45;;;;;;;1999.90;999.90;;;;;;;8.78;100.00;100090.19;10338216;28;20082;-73
2024/01/04 08:02:47;;;;;;;1999.90;999.90;;;;;;;8.46;100.00;100087.75;10337114;28;20085;-73
2024/01/04 08:07:49;;;;;;;1999.90;999.90;;;;;;;8.52;100.00;100097.81;10337828;28;20505;-73
2024/01/04 08:12:52;;;;;;;1999.90;999.90;;;;;;;8.69;100.00;100100.25;10337779;28;20050;-73
2024/01/04 08:17:54;;;;;;;1999.90;999.90;;;;;;;8.60;100.00;100100.81;10336438;28;20081;-73
2024/01/04 08:22:57;;;;;;;1999.90;999.90;;;;;;;8.41;100.00;100105.44;10337377;28;20089;-73
2024/01/04 08:27:59;;;;;;;1999.90;999.90;;;;;;;8.74;100.00;100103.44;10352051;28;20450;-73
2024/01/04 08:33:02;;;;;;;1999.90;999.90;;;;;;;9.21;100.00;100106.66;10336847;28;20065;-73
2024/01/04 08:38:04;;;;;;;1999.90;999.90;;;;;;;8.87;100.00;100120.94;10351857;28;20085;-73
2024/01/04 08:43:07;;;;;;;1999.90;999.90;;;;;;;8.70;100.00;100135.03;10351701;28;20046;-73
2024/01/04 08:48:09;;;;;;;1999.90;999.90;;;;;;;8.64;100.00;100127.56;10336884;28;20052;-72
2024/01/04 08:53:20;;;;;;;1999.90;999.90;;;;;;;8.81;100.00;100118.69;10351215;28;20406;-73
2024/01/04 08:58:22;;;;;;;1999.90;999.90;;;;;;;8.67;100.00;100138.63;10335957;28;20054;-73
2024/01/04 09:03:25;;;;;;;1999.90;999.90;;;;;;;8.70;100.00;100145.47;10335225;28;20139;-73
2024/01/04 09:08:27;;;;;;;1999.90;999.90;;;;;;;8.73;100.00;100140.88;10334458;28;20129;-72
2024/01/04 09:13:30;;;;;;;1999.90;999.90;;;;;;;8.68;100.00;100145.56;10350559;28;20050;-72
2024/01/04 09:18:35;;;;;;;1999.90;999.90;;;;;;;8.59;100.00;100150.47;10335213;28;20129;-72
2024/01/04 09:23:38;;;;;;;1999.90;999.90;;;;;;;8.62;100.00;100147.69;10335692;28;20050;-72
2024/01/04 09:28:40;;;;;;;1999.90;999.90;;;;;;;8.82;100.00;100162.97;10334892;28;20445;-72
2024/01/04 09:33:42;;;;;;;1999.90;999.90;;;;;;;8.45;100.00;100169.56;10334617;28;20072;-72
2024/01/04 09:38:45;;;;;;;1999.90;999.90;;;;;;;8.87;100.00;100183.59;10333322;28;20058;-72
2024/01/04 09:43:53;;;;;;;1999.90;999.90;;;;;;;8.72;100.00;100201.88;10334369;28;20101;-72
2024/01/04 09:48:59;;;;;;;1999.90;999.90;;;;;;;9.06;100.00;100196.38;10334502;28;20466;-73
2024/01/04 09:54:02;;;;;;;1999.90;999.90;;;;;;;8.73;100.00;100205.31;10349158;28;20046;-73
2024/01/04 09:59:04;;;;;;;1999.90;999.90;;;;;;;8.67;100.00;100206.50;10348994;28;20109;-73
2024/01/04 10:04:14;;;;;;;1999.90;999.90;;;;;;;8.88;100.00;100211.41;10349153;28;20046;-73
2024/01/04 10:09:36;;;;;;;1999.90;999.90;;;;;;;8.94;100.00;100224.06;10333185;28;20078;-73
2024/01/04 10:14:39;;;;;;;1999.90;999.90;;;;;;;8.46;100.00;100232.06;10335483;28;20476;-72
2024/01/04 10:19:42;;;;;;;1999.90;999.90;;;;;;;8.25;100.00;100241.94;10302860;28;20054;-73
2024/01/04 10:24:44;;;;;;;1999.90;999.90;;;;;;;8.23;100.00;100245.56;10305053;28;20053;-72
2024/01/04 10:29:51;;;;;;;1999.90;999.90;;;;;;;8.43;100.00;100239.25;10343225;28;20398;-73
2024/01/04 10:35:04;;;;;;;1999.90;999.90;;;;;;;8.64;100.00;100239.75;10324165;28;20097;-73
2024/01/04 10:40:09;;;;;;;1999.90;999.90;;;;;;;8.61;100.00;100246.00;10372891;28;20088;-72
2024/01/04 10:45:14;;;;;;;1999.90;999.90;;;;;;;8.40;100.00;100253.25;10341965;28;20050;-73
2024/01/04 10:50:17;;;;;;;1999.90;999.90;;;;;;;9.03;100.00;100246.19;10337067;28;20167;-73
2024/01/04 10:55:20;;;;;;;1999.90;999.90;;;;;;;8.88;100.00;100240.94;10338634;28;20054;-72
2024/01/04 11:00:23;;;;;;;1999.90;999.90;;;;;;;8.99;100.00;100247.28;10380512;28;20050;-74
2024/01/04 11:05:26;;;;;;;1999.90;999.90;;;;;;;8.57;100.00;100249.72;10361579;28;20058;-73
2024/01/04 11:10:29;;;;;;;1999.90;999.90;;;;;;;8.55;100.00;100260.22;10377251;28;20050;-73
2024/01/04 11:15:32;;;;;;;1999.90;999.90;;;;;;;8.50;100.00;100261.44;10377358;28;20046;-73
2024/01/04 11:21:03;;;;;;;1999.90;999.90;;;;;;;8.64;100.00;100263.25;10380281;28;20054;-73
2024/01/04 11:26:27;;;;;;;1999.90;999.90;;;;;;;8.38;100.00;100262.94;10358270;28;20085;-74
2024/01/04 11:31:38;;;;;;;1999.90;999.90;;;;;;;8.77;100.00;100253.78;10378770;28;20564;-73
2024/01/04 11:36:41;;;;;;;1999.90;999.90;;;;;;;9.43;100.00;100251.59;10379571;28;20378;-74
2024/01/04 11:41:43;;;;;;;1999.90;999.90;;;;;;;9.09;100.00;100235.38;10379621;28;20137;-73
2024/01/04 11:46:46;;;;;;;1999.90;999.90;;;;;;;9.15;100.00;100245.44;10378065;28;20661;-74
2024/01/04 11:51:48;;;;;;;1999.90;999.90;;;;;;;9.15;100.00;100237.63;10379303;28;20054;-73
2024/01/04 11:56:51;;;;;;;1999.90;999.90;;;;;;;8.77;100.00;100245.13;10378958;28;20080;-73
2024/01/04 12:01:53;;;;;;;1999.90;999.90;;;;;;;8.90;100.00;100246.91;10378779;28;20085;-73
2024/01/04 12:07:00;;;;;;;1999.90;999.90;;;;;;;8.98;100.00;100251.69;10377556;28;20052;-73
2024/01/04 12:12:04;;;;;;;1999.90;999.90;;;;;;;8.77;100.00;100245.94;10377159;28;20500;-73
2024/01/04 12:17:06;;;;;;;1999.90;999.90;;;;;;;9.27;100.00;100244.69;10378171;28;20466;-74
2024/01/04 12:22:09;;;;;;;1999.90;999.90;;;;;;;9.16;100.00;100246.28;10377971;28;20054;-74
2024/01/04 12:27:11;;;;;;;1999.90;999.90;;;;;;;9.09;100.00;100248.41;10377771;28;20404;-74
2024/01/04 12:32:14;;;;;;;1999.90;999.90;;;;;;;9.30;100.00;100249.75;10376616;28;20062;-74
2024/01/04 12:37:18;;;;;;;1999.90;999.90;;;;;;;9.35;100.00;100251.25;10376239;28;20061;-73
2024/01/04 12:42:24;;;;;;;1999.90;999.90;;;;;;;9.41;100.00;100250.84;10377414;28;20057;-74
2024/01/04 12:47:29;;;;;;;1999.90;999.90;;;;;;;9.83;100.00;100243.91;10359822;28;20057;-74
2024/01/04 12:52:31;;;;;;;1999.90;999.90;;;;;;;9.99;100.00;100254.25;10377251;28;20058;-74
2024/01/04 12:57:35;;;;;;;1999.90;999.90;;;;;;;9.44;100.00;100253.28;10376694;28;20056;-73
2024/01/04 13:02:37;;;;;;;1999.90;999.90;;;;;;;9.36;100.00;100248.53;10376310;28;20408;-74
2024/01/04 13:07:40;;;;;;;1999.90;999.90;;;;;;;9.16;100.00;100256.72;10375232;28;20052;-73
2024/01/04 13:12:42;;;;;;;1999.90;999.90;;;;;;;9.34;100.00;100262.63;10376021;28;20057;-74
2024/01/04 13:17:44;;;;;;;1999.90;999.90;;;;;;;9.04;100.00;100258.31;10375955;28;20141;-73
2024/01/04 13:22:47;;;;;;;1999.90;999.90;;;;;;;9.19;100.00;100262.59;10375756;28;20052;-73
2024/01/04 13:27:50;;;;;;;1999.90;999.90;;;;;;;8.83;100.00;100273.47;10376205;28;20124;-73
2024/01/04 13:32:53;;;;;;;1999.90;999.90;;;;;;;9.08;100.00;100271.09;10374365;28;20068;-73
2024/01/04 13:37:56;;;;;;;1999.90;999.90;;;;;;;9.26;100.00;100279.63;10374957;28;20057;-73
2024/01/04 13:42:58;;;;;;;1999.90;999.90;;;;;;;8.78;100.00;100272.91;10375212;28;20129;-73
2024/01/04 13:48:01;;;;;;;1999.90;999.90;;;;;;;9.21;100.00;100278.19;10374860;28;20050;-73
2024/01/04 13:53:08;;;;;;;1999.90;999.90;;;;;;;9.32;100.00;100272.34;10374994;28;20056;-74
2024/01/04 13:58:11;;;;;;;1999.90;999.90;;;;;;;9.18;100.00;100275.75;10374599;28;20129;-73
2024/01/04 14:03:14;;;;;;;1999.90;999.90;;;;;;;9.39;100.00;100284.91;10374441;28;20584;-74
2024/01/04 14:08:20;;;;;;;1999.90;999.90;;;;;;;9.19;100.00;100278.28;10374536;28;20049;-74
2024/01/04 14:13:22;;;;;;;1999.90;999.90;;;;;;;9.02;100.00;100289.72;10374695;28;20050;-74
2024/01/04 14:18:24;;;;;;;1999.90;999.90;;;;;;;9.31;100.00;100287.16;10374332;28;20107;-74
2024/01/04 14:23:27;;;;;;;1999.90;999.90;;;;;;;9.08;100.00;100293.75;10374139;28;20082;-73
2024/01/04 14:28:30;;;;;;;1999.90;999.90;;;;;;;9.13;100.00;100290.84;10373155;28;20049;-73
2024/01/04 14:33:32;;;;;;;1999.90;999.90;;;;;;;8.68;100.00;100298.69;10373905;28;20116;-73
2024/01/04 14:38:38;;;;;;;1999.90;999.90;;;;;;;8.82;100.00;100292.66;10374060;28;20054;-72
2024/01/04 14:43:40;;;;;;;1999.90;999.90;;;;;;;8.64;100.00;100292.81;10373182;28;20124;-72
2024/01/04 14:48:44;;;;;;;1999.90;999.90;;;;;;;8.91;100.00;100294.75;10372514;28;20046;-73
2024/01/04 14:53:47;;;;;;;1999.90;999.90;;;;;;;8.70;100.00;100289.84;10373724;28;20134;-73
2024/01/04 14:58:50;;;;;;;1999.90;999.90;;;;;;;9.14;100.00;100297.78;10374855;28;20050;-72
2024/01/04 15:03:53;;;;;;;1999.90;999.90;;;;;;;8.92;100.00;100305.09;10380024;28;20060;-72
2024/01/04 15:08:56;;;;;;;1999.90;999.90;;;;;;;8.97;100.00;100310.03;10380900;28;20046;-72
2024/01/04 15:14:01;;;;;;;1999.90;999.90;;;;;;;9.43;100.00;100317.78;10380645;28;20133;-72
2024/01/04 15:19:04;;;;;;;1999.90;999.90;;;;;;;9.17;100.00;100311.50;10380510;28;20052;-72
2024/01/04 15:24:06;;;;;;;1999.90;999.90;;;;;;;8.90;100.00;100311.34;10380359;28;20524;-73
2024/01/04 15:29:09;;;;;;;1999.90;999.90;;;;;;;9.05;100.00;100322.66;10379967;28;20409;-72
2024/01/04 15:34:11;;;;;;;1999.90;999.90;;;;;;;9.00;100.00;100325.53;10379910;28;20054;-72
2024/01/04 15:39:14;;;;;;;1999.90;999.90;;;;;;;8.82;100.00;100318.78;10379721;28;20058;-72
2024/01/04 15:44:16;;;;;;;1999.90;999.90;;;;;;;8.70;100.00;100328.16;10380024;28;20168;-72
2024/01/04 15:49:19;;;;;;;1999.90;999.90;;;;;;;8.31;100.00;100326.81;10378072;28;20050;-72
2024/01/04 15:54:21;;;;;;;1999.90;999.90;;;;;;;8.66;100.00;100337.94;10363382;22;20109;-72
2024/01/04 15:59:25;;;;;;;1999.90;999.90;;;;;;;8.54;100.00;100343.84;10319927;28;20493;-72
2024/01/04 16:04:28;;;;;;;1999.90;999.90;;;;;;;8.57;100.00;100341.03;10337904;28;20089;-72
2024/01/04 16:09:31;;;;;;;1999.90;999.90;;;;;;;8.27;100.00;100341.81;10336885;28;20113;-72
2024/01/04 16:14:33;;;;;;;1999.90;999.90;;;;;;;8.29;100.00;100349.56;10319973;28;20498;-71
2024/01/04 16:19:36;;;;;;;1999.90;999.90;;;;;;;8.10;100.00;100347.09;10336453;28;20089;-71
2024/01/04 16:24:38;;;;;;;1999.90;999.90;;;;;;;7.84;100.00;100353.72;10337964;28;20125;-71
2024/01/04 16:29:41;;;;;;;1999.90;999.90;;;;;;;7.76;100.00;100349.72;10352233;28;20072;-71
2024/01/04 16:34:43;;;;;;;1999.90;999.90;;;;;;;7.80;100.00;100347.78;10336841;28;20089;-71
2024/01/04 16:39:46;;;;;;;1999.90;999.90;;;;;;;7.41;100.00;100347.22;10336791;28;20405;-71
2024/01/04 16:44:48;;;;;;;1999.90;999.90;;;;;;;7.30;100.00;100348.69;10335730;28;20121;-71
2024/01/04 16:49:51;;;;;;;1999.90;999.90;;;;;;;6.80;100.00;100342.47;10336881;28;20046;-71
2024/01/04 16:54:53;;;;;;;1999.90;999.90;;;;;;;6.96;100.00;100346.00;10336520;28;20090;-71
2024/01/04 16:59:56;;;;;;;1999.90;999.90;;;;;;;6.65;100.00;100344.88;10336196;28;20050;-71
2024/01/04 17:04:59;;;;;;;1999.90;999.90;;;;;;;6.94;100.00;100352.19;10351118;28;20093;-71
2024/01/04 17:10:02;;;;;;;1999.90;999.90;;;;;;;6.67;100.00;100355.22;10335567;28;20154;-71
2024/01/04 17:15:06;;;;;;;1999.90;999.90;;;;;;;6.47;100.00;100354.44;10335719;28;20089;-71
2024/01/04 17:20:10;;;;;;;1999.90;999.90;;;;;;;6.91;100.00;100353.22;10335330;28;20046;-71
2024/01/04 17:25:12;;;;;;;1999.90;999.90;;;;;;;6.67;100.00;100356.09;10334607;28;20053;-71
2024/01/04 17:30:21;;;;;;;1999.90;999.90;;;;;;;6.98;100.00;100345.94;10334954;28;20050;-71
2024/01/04 17:35:23;;;;;;;1999.90;999.90;;;;;;;6.86;100.00;100342.19;10348861;28;20054;-71
2024/01/04 17:40:26;;;;;;;1999.90;999.90;;;;;;;6.74;100.00;100354.03;10334534;28;20491;-71
2024/01/04 17:45:28;;;;;;;1999.90;999.90;;;;;;;6.59;100.00;100349.53;10349611;28;20042;-71
2024/01/04 17:50:32;;;;;;;1999.90;999.90;;;;;;;7.00;100.00;100344.94;10334788;28;20413;-71
2024/01/04 17:55:34;;;;;;;1999.90;999.90;;;;;;;6.83;100.00;100353.56;10334043;28;20054;-71
2024/01/04 18:00:37;;;;;;;1999.90;999.90;;;;;;;7.02;100.00;100344.84;10332948;28;20122;-71
2024/01/04 18:05:41;;;;;;;1999.90;999.90;;;;;;;6.84;100.00;100339.66;10349087;28;20054;-71
2024/01/04 18:10:43;;;;;;;1999.90;999.90;;;;;;;6.96;100.00;100343.41;10348892;28;20061;-72
2024/01/04 18:15:45;;;;;;;1999.90;999.90;;;;;;;7.07;100.00;100325.47;10332470;28;20378;-71
2024/01/04 18:20:48;;;;;;;1999.90;999.90;;;;;;;7.12;100.00;100316.59;10332845;28;20057;-71
2024/01/04 18:25:51;;;;;;;1999.90;999.90;;;;;;;7.05;100.00;100311.69;10333470;28;20050;-71
2024/01/04 18:30:53;;;;;;;1999.90;999.90;;;;;;;6.82;100.00;100312.84;10333606;28;20074;-71
2024/01/04 18:35:56;;;;;;;1999.90;999.90;;;;;;;6.63;100.00;100314.69;10338164;28;20081;-71
2024/01/04 18:40:58;;;;;;;1999.90;999.90;;;;;;;6.32;100.00;100319.59;10356639;28;20108;-72
2024/01/04 18:46:04;;;;;;;1999.90;999.90;;;;;;;6.54;100.00;100320.31;10355777;28;20042;-72
2024/01/04 18:51:08;;;;;;;1999.90;999.90;;;;;;;6.62;100.00;100316.44;10356192;28;20057;-72
2024/01/04 18:56:11;;;;;;;1999.90;999.90;;;;;;;6.70;100.00;100311.69;10340573;28;20383;-72
2024/01/04 19:01:13;;;;;;;1999.90;999.90;;;;;;;6.64;100.00;100300.75;10355916;28;20061;-72
2024/01/04 19:06:15;;;;;;;1999.90;999.90;;;;;;;6.82;100.00;100301.59;10340331;28;20093;-72
2024/01/04 19:11:18;;;;;;;1999.90;999.90;;;;;;;6.92;100.00;100313.22;10339085;28;20397;-72
2024/01/04 19:16:21;;;;;;;1999.90;999.90;;;;;;;6.69;100.00;100309.16;10339947;28;20478;-72
2024/01/04 19:21:24;;;;;;;1999.90;999.90;;;;;;;6.77;100.00;100311.41;10338758;28;20058;-72
2024/01/04 19:26:26;;;;;;;1999.90;999.90;;;;;;;6.67;100.00;100298.84;10340169;28;20053;-72
2024/01/04 19:31:29;;;;;;;1999.90;999.90;;;;;;;6.51;100.00;100298.75;10339403;28;20081;-72
2024/01/04 19:36:31;;;;;;;1999.90;999.90;;;;;;;6.64;100.00;100296.41;10339306;28;20129;-72
2024/01/04 19:41:34;;;;;;;1999.90;999.90;;;;;;;6.26;100.00;100291.28;10354407;28;20142;-72
2024/01/04 19:46:37;;;;;;;1999.90;999.90;;;;;;;6.55;100.00;100283.81;10338746;28;20046;-72
2024/01/04 19:51:39;;;;;;;1999.90;999.90;;;;;;;6.50;100.00;100273.63;10338917;28;20413;-72
2024/01/04 19:56:42;;;;;;;1999.90;999.90;;;;;;;6.50;100.00;100267.59;10338983;28;20058;-72
2024/01/04 20:01:46;;;;;;;1999.90;999.90;;;;;;;6.53;100.00;100267.47;10338357;28;20137;-72
2024/01/04 20:06:48;;;;;;;1999.90;999.90;;;;;;;6.76;100.00;100268.06;10338234;28;20042;-72
2024/01/04 20:11:51;;;;;;;1999.90;999.90;;;;;;;6.45;100.00;100260.03;10338075;28;20133;-72
2024/01/04 20:16:53;;;;;;;1999.90;999.90;;;;;;;6.59;100.00;100264.56;10337968;28;20053;-72
2024/01/04 20:22:01;;;;;;;1999.90;999.90;;;;;;;6.56;100.00;100269.09;10337580;28;20509;-72
2024/01/04 20:27:03;;;;;;;1999.90;999.90;;;;;;;6.55;100.00;100260.41;10338286;28;20125;-72
2024/01/04 20:32:06;;;;;;;1999.90;999.90;;;;;;;6.73;100.00;100256.06;10337811;28;20074;-72
2024/01/04 20:37:11;;;;;;;1999.90;999.90;;;;;;;6.90;100.00;100250.00;10351896;28;20054;-71
2024/01/04 20:42:13;;;;;;;1999.90;999.90;;;;;;;6.57;100.00;100245.56;10336836;28;20133;-72
2024/01/04 20:47:16;;;;;;;1999.90;999.90;;;;;;;6.81;100.00;100245.28;10336578;28;20438;-72
2024/01/04 20:52:18;;;;;;;1999.90;999.90;;;;;;;6.82;100.00;100229.56;10336414;28;20085;-72
2024/01/04 20:57:21;;;;;;;1999.90;999.90;;;;;;;6.92;100.00;100216.09;10335523;28;20057;-72
2024/01/04 21:02:23;;;;;;;1999.90;999.90;;;;;;;6.70;100.00;100205.03;10335977;28;20060;-72
2024/01/04 21:07:29;;;;;;;1999.90;999.90;;;;;;;6.95;100.00;100201.16;10335951;28;20050;-73
2024/01/04 21:12:31;;;;;;;1999.90;999.90;;;;;;;6.93;100.00;100194.38;10335703;28;20046;-72
2024/01/04 21:17:34;;;;;;;1999.90;999.90;;;;;;;7.12;100.00;100181.25;10334279;28;20054;-73
2024/01/04 21:22:37;;;;;;;1999.90;999.90;;;;;;;7.10;100.00;100180.47;10334146;28;20062;-73
2024/01/04 21:27:39;;;;;;;1999.90;999.90;;;;;;;7.11;100.00;100175.19;10333997;28;20545;-73
2024/01/04 21:32:41;;;;;;;1999.90;999.90;;;;;;;7.21;100.00;100173.78;10350481;28;20060;-73
2024/01/04 21:37:44;;;;;;;1999.90;999.90;;;;;;;7.38;100.00;100153.78;10333506;28;20050;-72
2024/01/04 21:42:46;;;;;;;1999.90;999.90;;;;;;;7.17;100.00;100159.22;10349779;28;20064;-73
2024/01/04 21:47:48;;;;;;;1999.90;999.90;;;;;;;7.14;100.00;100138.56;10334249;28;20052;-73
2024/01/04 21:52:51;;;;;;;1999.90;999.90;;;;;;;7.24;100.00;100125.91;10333028;28;20082;-72
2024/01/04 21:57:53;;;;;;;1999.90;999.90;;;;;;;7.19;100.00;100123.53;10334355;28;20074;-73
2024/01/04 22:02:56;;;;;;;1999.90;999.90;;;;;;;7.34;100.00;100111.44;10334016;28;20493;-73